createdAt,value
2018-04-19T00:01:50.829Z,102561.26
2018-04-19T00:04:16.852Z,102555.64
2018-04-19T00:06:42.900Z,102551.05
2018-04-19T00:09:08.916Z,102555.86
2018-04-19T00:11:34.996Z,102551.55
2018-04-19T00:14:01.024Z,102547.52
2018-04-19T00:16:27.103Z,102550.22
2018-04-19T00:18:53.137Z,102540.23
2018-04-19T00:21:19.131Z,102541.38
2018-04-19T00:23:45.249Z,102538.33
2018-04-19T00:26:11.290Z,102536.84
2018-04-19T00:28:37.351Z,102534.41
2018-04-19T00:31:03.419Z,102529.24
2018-04-19T00:33:29.545Z,102533.91
2018-04-19T00:35:55.585Z,102532.98
2018-04-19T00:38:21.590Z,102535.28
2018-04-19T00:40:47.630Z,102527.49
2018-04-19T00:43:13.752Z,102522.83
2018-04-19T00:45:39.732Z,102528.37
2018-04-19T00:48:05.775Z,102524.63
2018-04-19T00:50:31.830Z,102518.18
2018-04-19T00:53:08.871Z,102515.44
2018-04-19T00:55:34.872Z,102510.31
2018-04-19T00:58:00.953Z,102511.31
2018-04-19T01:00:26.997Z,102510.16
2018-04-19T01:02:53.086Z,102508.54
2018-04-19T01:05:19.186Z,102511.02
2018-04-19T01:07:45.185Z,102503.47
2018-04-19T01:10:11.217Z,102505.89
2018-04-19T01:12:37.271Z,102503.30
2018-04-19T01:15:04.394Z,102497.98
2018-04-19T01:17:30.417Z,102501.77
2018-04-19T01:19:56.465Z,102501.19
2018-04-19T01:22:22.473Z,102503.15
2018-04-19T01:24:48.527Z,102500.95
2018-04-19T01:27:14.582Z,102495.36
2018-04-19T01:29:40.611Z,102498.35
2018-04-19T01:32:06.624Z,102502.97
2018-04-19T01:34:32.623Z,102499.25
2018-04-19T01:36:58.660Z,102499.27
2018-04-19T01:39:24.671Z,102490.98
2018-04-19T01:41:50.706Z,102494.67
2018-04-19T01:44:16.742Z,102490.19
2018-04-19T01:46:42.735Z,102487.84
2018-04-19T01:49:08.770Z,102490.69
2018-04-19T01:51:34.748Z,102491.20
2018-04-19T01:54:00.751Z,102490.33
2018-04-19T01:56:26.761Z,102491.20
2018-04-19T01:58:52.794Z,102489.80
2018-04-19T02:01:18.772Z,102491.53
2018-04-19T02:03:44.756Z,102492.47
2018-04-19T02:06:10.855Z,102495.35
2018-04-19T02:08:36.846Z,102487.06
2018-04-19T02:11:03.494Z,102495.44
2018-04-19T02:13:29.581Z,102490.46
2018-04-19T02:15:55.600Z,102494.87
2018-04-19T02:18:21.609Z,102498.92
2018-04-19T02:20:54.405Z,102493.47
2018-04-19T02:23:20.422Z,102499.28
2018-04-19T02:25:46.726Z,102491.43
2018-04-19T02:28:12.751Z,102492.42
2018-04-19T02:30:38.835Z,102487.03
2018-04-19T02:33:04.829Z,102485.98
2018-04-19T02:35:30.807Z,102481.16
2018-04-19T02:37:56.829Z,102487.09
2018-04-19T02:40:23.095Z,102482.56
2018-04-19T02:42:49.190Z,102484.20
2018-04-19T02:45:15.304Z,102489.38
2018-04-19T02:47:41.304Z,102478.40
2018-04-19T02:50:07.313Z,102480.70
2018-04-19T02:52:33.502Z,102483.22
2018-04-19T02:54:59.585Z,102482.38
2018-04-19T02:57:25.572Z,102487.33
2018-04-19T02:59:51.632Z,102483.50
2018-04-19T03:02:17.748Z,102480.60
2018-04-19T03:04:43.859Z,102484.77
2018-04-19T03:07:09.900Z,102494.40
2018-04-19T03:09:35.916Z,102485.86
2018-04-19T03:12:02.049Z,102483.30
2018-04-19T03:14:28.215Z,102474.10
2018-04-19T03:16:54.606Z,102473.73
2018-04-19T03:19:20.834Z,102474.23
2018-04-19T03:21:46.857Z,102473.16
2018-04-19T03:24:12.841Z,102469.27
2018-04-19T03:26:38.853Z,102471.03
2018-04-19T03:29:04.900Z,102478.53
2018-04-19T03:31:30.891Z,102473.24
2018-04-19T03:33:56.888Z,102468.55
2018-04-19T03:36:22.937Z,102465.09
2018-04-19T03:38:48.938Z,102467.91
2018-04-19T03:41:14.939Z,102465.50
2018-04-19T03:43:40.995Z,102470.02
2018-04-19T03:46:07.035Z,102471.08
2018-04-19T03:48:33.336Z,102468.67
2018-04-19T03:50:59.712Z,102469.44
2018-04-19T03:53:25.873Z,102466.10
2018-04-19T03:55:51.976Z,102469.48
2018-04-19T03:58:18.004Z,102466.06
2018-04-19T04:00:44.026Z,102464.63
2018-04-19T04:03:10.013Z,102468.94
2018-04-19T04:05:36.028Z,102463.41
2018-04-19T04:08:02.035Z,102463.87
2018-04-19T04:10:28.123Z,102466.98
2018-04-19T04:12:54.165Z,102466.70
2018-04-19T04:15:20.170Z,102455.50
2018-04-19T04:17:58.369Z,102464.14
2018-04-19T04:20:36.397Z,102460.05
2018-04-19T04:23:14.493Z,102459.73
2018-04-19T04:25:40.487Z,102458.86
2018-04-19T04:28:06.537Z,102457.92
2018-04-19T04:30:32.564Z,102451.11
2018-04-19T04:32:58.596Z,102457.83
2018-04-19T04:35:24.613Z,102457.73
2018-04-19T04:37:50.627Z,102452.63
2018-04-19T04:40:16.657Z,102456.86
2018-04-19T04:42:42.670Z,102451.63
2018-04-19T04:45:08.697Z,102451.33
2018-04-19T04:47:34.682Z,102453.00
2018-04-19T04:50:00.688Z,102449.95
2018-04-19T04:52:26.668Z,102450.58
2018-04-19T04:54:52.865Z,102446.63
2018-04-19T04:57:18.891Z,102454.18
2018-04-19T04:59:44.942Z,102454.54
2018-04-19T05:02:10.990Z,102458.77
2018-04-19T05:04:36.981Z,102458.89
2018-04-19T05:07:03.047Z,102448.45
2018-04-19T05:09:29.098Z,102456.67
2018-04-19T05:11:55.157Z,102458.86
2018-04-19T05:14:21.174Z,102461.28
2018-04-19T05:16:47.176Z,102458.33
2018-04-19T05:19:13.373Z,102462.45
2018-04-19T05:21:39.432Z,102461.27
2018-04-19T05:24:06.913Z,102464.73
2018-04-19T05:26:33.498Z,102464.27
2018-04-19T05:28:59.544Z,102466.36
2018-04-19T05:31:25.546Z,102464.05
2018-04-19T05:33:51.597Z,102470.66
2018-04-19T05:36:17.678Z,102467.89
2018-04-19T05:38:43.879Z,102465.77
2018-04-19T05:41:10.373Z,102471.47
2018-04-19T05:43:36.501Z,102468.16
2018-04-19T05:46:02.521Z,102474.41
2018-04-19T05:48:28.529Z,102474.86
2018-04-19T05:50:54.601Z,102475.84
2018-04-19T05:53:20.589Z,102477.86
2018-04-19T05:55:46.599Z,102479.95
2018-04-19T05:58:12.617Z,102475.30
2018-04-19T06:00:38.675Z,102472.67
2018-04-19T06:03:04.766Z,102471.16
2018-04-19T06:05:30.735Z,102476.91
2018-04-19T06:07:56.718Z,102472.19
2018-04-19T06:10:22.787Z,102474.59
2018-04-19T06:12:48.776Z,102473.19
2018-04-19T06:15:15.079Z,102475.51
2018-04-19T06:17:41.123Z,102475.09
2018-04-19T06:20:07.489Z,102484.08
2018-04-19T06:22:33.536Z,102478.05
2018-04-19T06:24:59.643Z,102476.62
2018-04-19T06:27:25.716Z,102475.87
2018-04-19T06:29:51.938Z,102482.09
2018-04-19T06:32:18.091Z,102481.13
2018-04-19T06:34:44.079Z,102480.23
2018-04-19T06:37:11.496Z,102489.77
2018-04-19T06:39:37.524Z,102483.84
2018-04-19T06:42:03.773Z,102486.36
2018-04-19T06:44:29.925Z,102486.41
2018-04-19T06:46:56.082Z,102488.93
2018-04-19T06:49:22.184Z,102490.88
2018-04-19T06:51:48.231Z,102481.80
2018-04-19T06:54:14.328Z,102484.58
2018-04-19T06:56:40.745Z,102486.55
2018-04-19T06:59:06.758Z,102481.64
2018-04-19T07:03:51.541Z,102482.86
2018-04-19T07:06:17.709Z,102487.61
2018-04-19T07:08:44.673Z,102485.91
2018-04-19T07:11:11.079Z,102486.58
2018-04-19T07:13:37.678Z,102481.13
2018-04-19T07:16:03.808Z,102483.92
2018-04-19T07:18:29.883Z,102478.86
2018-04-19T07:20:55.933Z,102479.77
2018-04-19T07:23:22.928Z,102476.16
2018-04-19T07:25:48.978Z,102487.34
2018-04-19T07:28:14.946Z,102479.61
2018-04-19T07:30:41.055Z,102480.43
2018-04-19T07:33:07.068Z,102481.54
2018-04-19T07:35:33.077Z,102481.29
2018-04-19T07:37:59.084Z,102481.98
2018-04-19T07:40:25.085Z,102483.19
2018-04-19T07:42:51.088Z,102475.64
2018-04-19T07:45:17.162Z,102474.08
2018-04-19T07:47:43.133Z,102478.27
2018-04-19T07:50:09.158Z,102475.91
2018-04-19T07:52:35.368Z,102470.33
2018-04-19T07:55:01.385Z,102476.04
2018-04-19T07:57:27.414Z,102472.53
2018-04-19T07:59:53.470Z,102475.90
2018-04-19T08:02:19.547Z,102460.77
2018-04-19T08:04:45.642Z,102464.67
2018-04-19T08:07:11.693Z,102456.66
2018-04-19T08:09:37.828Z,102462.33
2018-04-19T08:12:04.158Z,102459.84
2018-04-19T08:14:30.254Z,102458.19
2018-04-19T08:16:56.241Z,102455.88
2018-04-19T08:19:22.273Z,102457.41
2018-04-19T08:21:48.347Z,102456.52
2018-04-19T08:24:14.420Z,102456.61
2018-04-19T08:26:40.474Z,102454.82
2018-04-19T08:29:06.489Z,102450.95
2018-04-19T08:31:32.524Z,102455.64
2018-04-19T08:33:58.523Z,102453.06
2018-04-19T08:36:24.526Z,102450.98
2018-04-19T08:38:50.540Z,102456.13
2018-04-19T08:41:16.610Z,102451.92
2018-04-19T08:43:42.673Z,102448.47
2018-04-19T08:46:08.639Z,102454.95
2018-04-19T08:48:34.672Z,102454.70
2018-04-19T08:51:00.740Z,102454.95
2018-04-19T08:53:26.749Z,102453.27
2018-04-19T08:55:52.788Z,102455.75
2018-04-19T08:58:18.788Z,102454.80
2018-04-19T09:00:44.816Z,102453.30
2018-04-19T09:03:10.879Z,102447.05
2018-04-19T09:05:36.907Z,102451.38
2018-04-19T09:08:02.945Z,102451.86
2018-04-19T09:10:28.996Z,102451.59
2018-04-19T09:12:55.007Z,102446.77
2018-04-19T09:15:21.002Z,102436.43
2018-04-19T09:17:47.063Z,102440.36
2018-04-19T09:20:13.040Z,102436.91
2018-04-19T09:22:39.078Z,102445.48
2018-04-19T09:25:05.124Z,102446.77
2018-04-19T09:27:31.241Z,102442.23
2018-04-19T09:29:57.263Z,102451.23
2018-04-19T09:32:23.299Z,102442.78
2018-04-19T09:34:49.345Z,102441.20
2018-04-19T09:37:15.371Z,102447.59
2018-04-19T09:39:41.535Z,102445.81
2018-04-19T09:42:07.544Z,102445.95
2018-04-19T09:44:33.584Z,102438.17
2018-04-19T09:46:59.680Z,102439.13
2018-04-19T09:49:25.798Z,102435.41
2018-04-19T09:51:52.153Z,102433.75
2018-04-19T09:54:18.296Z,102433.55
2018-04-19T09:56:44.292Z,102434.55
2018-04-19T09:59:12.093Z,102429.08
2018-04-19T10:01:44.076Z,102433.83
2018-04-19T10:04:13.100Z,102420.75
2018-04-19T10:06:39.165Z,102418.77
2018-04-19T10:09:05.268Z,102424.92
2018-04-19T10:11:31.367Z,102414.28
2018-04-19T10:13:57.452Z,102415.78
2018-04-19T10:16:23.905Z,102416.52
2018-04-19T10:18:50.022Z,102413.66
2018-04-19T10:21:16.032Z,102421.16
2018-04-19T10:23:42.084Z,102418.66
2018-04-19T10:26:08.122Z,102417.04
2018-04-19T10:28:34.213Z,102418.73
2018-04-19T10:31:00.217Z,102415.20
2018-04-19T10:33:26.287Z,102415.37
2018-04-19T10:35:52.375Z,102417.30
2018-04-19T10:38:18.413Z,102409.20
2018-04-19T10:40:44.461Z,102415.63
2018-04-19T10:43:10.648Z,102408.00
2018-04-19T10:45:36.699Z,102403.62
2018-04-19T10:48:02.780Z,102410.45
2018-04-19T10:50:28.801Z,102403.37
2018-04-19T10:52:54.816Z,102401.27
2018-04-19T10:55:20.791Z,102402.44
2018-04-19T10:57:46.802Z,102405.98
2018-04-19T11:00:12.835Z,102401.97
2018-04-19T11:02:38.822Z,102401.26
2018-04-19T11:05:04.883Z,102400.09
2018-04-19T11:07:30.915Z,102395.44
2018-04-19T11:09:56.977Z,102396.51
2018-04-19T11:12:22.964Z,102388.91
2018-04-19T11:14:48.972Z,102386.57
2018-04-19T11:17:14.998Z,102388.31
2018-04-19T11:19:41.037Z,102387.61
2018-04-19T11:22:07.064Z,102387.34
2018-04-19T11:24:33.077Z,102389.03
2018-04-19T11:26:59.117Z,102386.83
2018-04-19T11:29:25.202Z,102384.28
2018-04-19T11:31:51.188Z,102383.14
2018-04-19T11:34:17.236Z,102377.78
2018-04-19T11:36:44.002Z,102378.03
2018-04-19T11:39:10.284Z,102377.24
2018-04-19T11:41:36.367Z,102380.47
2018-04-19T11:44:02.437Z,102379.39
2018-04-19T11:46:28.417Z,102376.73
2018-04-19T11:48:54.511Z,102375.72
2018-04-19T11:51:20.579Z,102369.95
2018-04-19T11:53:46.621Z,102365.41
2018-04-19T11:56:12.663Z,102365.39
2018-04-19T11:58:38.693Z,102360.83
2018-04-19T12:01:04.767Z,102359.64
2018-04-19T12:03:31.013Z,102358.61
2018-04-19T12:05:57.084Z,102350.94
2018-04-19T12:08:23.957Z,102352.08
2018-04-19T12:10:50.153Z,102350.50
2018-04-19T12:13:16.235Z,102352.28
2018-04-19T12:15:42.257Z,102338.41
2018-04-19T12:18:08.259Z,102339.69
2018-04-19T12:20:34.636Z,102338.91
2018-04-19T12:23:00.737Z,102339.69
2018-04-19T12:25:26.717Z,102337.37
2018-04-19T12:27:52.727Z,102329.92
2018-04-19T12:30:18.813Z,102338.45
2018-04-19T12:32:44.902Z,102330.61
2018-04-19T12:35:11.012Z,102328.91
2018-04-19T12:37:37.113Z,102321.25
2018-04-19T12:40:03.094Z,102311.70
2018-04-19T12:42:29.144Z,102312.56
2018-04-19T12:44:55.194Z,102316.45
2018-04-19T12:47:21.329Z,102312.56
2018-04-19T12:49:47.385Z,102312.18
2018-04-19T12:52:13.364Z,102309.54
2018-04-19T12:54:39.416Z,102302.95
2018-04-19T12:57:05.532Z,102307.66
2018-04-19T12:59:31.529Z,102307.83
2018-04-19T13:01:57.535Z,102306.83
2018-04-19T13:04:24.047Z,102298.62
2018-04-19T13:06:50.152Z,102293.74
2018-04-19T13:09:16.220Z,102294.32
2018-04-19T13:11:42.267Z,102293.07
2018-04-19T13:14:08.306Z,102287.78
2018-04-19T13:16:34.406Z,102287.16
2018-04-19T13:19:00.479Z,102283.58
2018-04-19T13:21:26.549Z,102278.27
2018-04-19T13:23:52.589Z,102280.61
2018-04-19T13:26:18.623Z,102280.53
2018-04-19T13:28:44.675Z,102278.41
2018-04-19T13:31:10.678Z,102271.11
2018-04-19T13:33:36.710Z,102272.09
2018-04-19T13:36:03.311Z,102268.04
2018-04-19T13:38:29.315Z,102268.56
2018-04-19T13:40:55.367Z,102264.48
2018-04-19T13:43:21.402Z,102264.45
2018-04-19T13:45:47.590Z,102252.39
2018-04-19T13:48:13.813Z,102248.03
2018-04-19T13:50:39.832Z,102248.41
2018-04-19T13:53:05.865Z,102255.27
2018-04-19T13:55:31.959Z,102243.06
2018-04-19T13:57:58.161Z,102236.20
2018-04-19T14:00:24.181Z,102236.44
2018-04-19T14:02:50.186Z,102242.67
2018-04-19T14:05:16.318Z,102228.81
2018-04-19T14:07:42.371Z,102232.02
2018-04-19T14:10:08.368Z,102231.20
2018-04-19T14:12:34.400Z,102229.66
2018-04-19T14:15:00.553Z,102229.17
2018-04-19T14:17:26.589Z,102225.05
2018-04-19T14:19:52.805Z,102223.20
2018-04-19T14:22:18.835Z,102218.88
2018-04-19T14:24:45.451Z,102218.90
2018-04-19T14:27:11.468Z,102220.59
2018-04-19T14:29:37.525Z,102220.63
2018-04-19T14:32:03.579Z,102218.44
2018-04-19T14:34:29.654Z,102215.67
2018-04-19T14:36:55.745Z,102211.09
2018-04-19T14:39:21.795Z,102210.91
2018-04-19T14:41:47.882Z,102202.09
2018-04-19T14:44:13.897Z,102205.19
2018-04-19T14:46:40.033Z,102198.74
2018-04-19T14:49:06.040Z,102196.66
2018-04-19T14:51:32.086Z,102196.83
2018-04-19T14:53:58.176Z,102192.87
2018-04-19T14:56:24.249Z,102186.21
2018-04-19T14:58:50.257Z,102184.11
2018-04-19T15:01:16.325Z,102185.08
2018-04-19T15:03:42.402Z,102186.28
2018-04-19T15:06:08.456Z,102188.02
2018-04-19T15:08:34.572Z,102186.30
2018-04-19T15:11:00.612Z,102188.27
2018-04-19T15:13:26.637Z,102189.06
2018-04-19T15:15:52.687Z,102182.70
2018-04-19T15:18:18.669Z,102186.62
2018-04-19T15:20:44.710Z,102184.34
2018-04-19T15:23:10.725Z,102182.91
2018-04-19T15:25:36.747Z,102201.05
2018-04-19T15:28:02.798Z,102184.99
2018-04-19T15:30:28.830Z,102185.03
2018-04-19T15:32:55.009Z,102182.92
2018-04-19T15:35:21.008Z,102177.06
2018-04-19T15:37:47.093Z,102180.32
2018-04-19T15:40:13.117Z,102182.15
2018-04-19T15:42:39.118Z,102179.07
2018-04-19T15:45:05.109Z,102189.38
2018-04-19T15:47:31.204Z,102192.34
2018-04-19T15:49:57.277Z,102188.08
2018-04-19T15:52:23.257Z,102183.15
2018-04-19T15:54:49.397Z,102187.20
2018-04-19T15:57:15.442Z,102183.84
2018-04-19T15:59:41.470Z,102180.19
2018-04-19T16:02:08.281Z,102182.95
2018-04-19T16:04:34.263Z,102176.44
2018-04-19T16:07:00.390Z,102185.16
2018-04-19T16:09:26.500Z,102172.17
2018-04-19T16:11:53.083Z,102175.44
2018-04-19T16:14:18.601Z,102177.45
2018-04-19T16:16:44.661Z,102181.30
2018-04-19T16:19:10.995Z,102179.88
2018-04-19T16:21:36.987Z,102183.30
2018-04-19T16:24:03.166Z,102178.58
2018-04-19T16:26:29.267Z,102177.93
2018-04-19T16:28:55.377Z,102168.09
2018-04-19T16:31:21.353Z,102163.08
2018-04-19T16:33:47.372Z,102161.05
2018-04-19T16:36:13.561Z,102159.80
2018-04-19T16:38:39.600Z,102156.02
2018-04-19T16:41:05.689Z,102161.34
2018-04-19T16:43:31.723Z,102158.64
2018-04-19T16:45:57.852Z,102153.13
2018-04-19T16:48:23.903Z,102157.07
2018-04-19T16:50:49.904Z,102156.24
2018-04-19T16:53:15.960Z,102157.72
2018-04-19T16:55:42.067Z,102150.45
2018-04-19T16:58:08.065Z,102149.47
2018-04-19T17:00:34.121Z,102148.16
2018-04-19T17:03:00.141Z,102145.13
2018-04-19T17:05:26.283Z,102143.09
2018-04-19T17:07:52.279Z,102143.20
2018-04-19T17:10:18.305Z,102144.50
2018-04-19T17:12:44.505Z,102139.31
2018-04-19T17:15:10.585Z,102137.41
2018-04-19T17:17:36.585Z,102135.52
2018-04-19T17:20:02.690Z,102126.99
2018-04-19T17:22:28.712Z,102122.74
2018-04-19T17:24:54.708Z,102115.52
2018-04-19T17:27:20.728Z,102121.78
2018-04-19T17:29:46.750Z,102122.73
2018-04-19T17:32:12.763Z,102129.25
2018-04-19T17:34:38.770Z,102128.30
2018-04-19T17:37:04.771Z,102122.89
2018-04-19T17:39:30.776Z,102125.89
2018-04-19T17:41:56.813Z,102126.23
2018-04-19T17:44:22.843Z,102128.20
2018-04-19T17:46:48.890Z,102123.88
2018-04-19T17:49:14.911Z,102121.98
2018-04-19T17:51:40.961Z,102119.52
2018-04-19T17:54:06.993Z,102123.56
2018-04-19T17:56:33.025Z,102121.80
2018-04-19T17:58:59.038Z,102122.30
2018-04-19T18:01:25.104Z,102120.44
2018-04-19T18:03:51.168Z,102111.63
2018-04-19T18:06:18.013Z,102114.47
2018-04-19T18:08:44.113Z,102116.58
2018-04-19T18:11:10.216Z,102118.58
2018-04-19T18:13:36.234Z,102121.97
2018-04-19T18:16:02.319Z,102122.70
2018-04-19T18:18:28.502Z,102124.41
2018-04-19T18:20:54.523Z,102121.45
2018-04-19T18:23:20.543Z,102120.14
2018-04-19T18:25:46.572Z,102119.50
2018-04-19T18:28:12.604Z,102120.55
2018-04-19T18:30:38.626Z,102126.81
2018-04-19T18:33:04.707Z,102124.16
2018-04-19T18:35:30.764Z,102126.88
2018-04-19T18:37:56.816Z,102122.20
2018-04-19T18:40:22.825Z,102121.72
2018-04-19T18:42:48.808Z,102127.75
2018-04-19T18:45:14.846Z,102132.63
2018-04-19T18:47:40.856Z,102124.63
2018-04-19T18:50:06.858Z,102127.08
2018-04-19T18:52:32.939Z,102124.06
2018-04-19T18:54:58.963Z,102132.41
2018-04-19T18:57:24.956Z,102133.08
2018-04-19T18:59:50.947Z,102132.58
2018-04-19T19:02:16.973Z,102143.02
2018-04-19T19:04:43.114Z,102142.56
2018-04-19T19:07:09.177Z,102147.62
2018-04-19T19:09:35.236Z,102145.97
2018-04-19T19:12:01.269Z,102152.17
2018-04-19T19:14:27.445Z,102158.25
2018-04-19T19:16:53.522Z,102159.72
2018-04-19T19:19:31.827Z,102162.33
2018-04-19T19:21:58.616Z,102162.32
2018-04-19T19:24:24.628Z,102161.16
2018-04-19T19:26:50.628Z,102161.05
2018-04-19T19:29:16.653Z,102165.04
2018-04-19T19:31:42.695Z,102162.37
2018-04-19T19:34:08.720Z,102165.22
2018-04-19T19:36:34.756Z,102166.82
2018-04-19T19:39:00.822Z,102167.24
2018-04-19T19:41:26.884Z,102163.73
2018-04-19T19:43:52.920Z,102164.23
2018-04-19T19:46:19.000Z,102166.14
2018-04-19T19:48:45.022Z,102166.19
2018-04-19T19:51:11.043Z,102162.44
2018-04-19T19:53:37.072Z,102176.33
2018-04-19T19:56:03.106Z,102168.31
2018-04-19T19:58:29.155Z,102170.62
2018-04-19T20:00:55.196Z,102165.39
2018-04-19T20:03:21.214Z,102169.26
2018-04-19T20:05:47.363Z,102173.64
2018-04-19T20:08:13.328Z,102169.67
2018-04-19T20:10:39.433Z,102164.64
2018-04-19T20:13:05.456Z,102166.94
2018-04-19T20:15:31.536Z,102168.93
2018-04-19T20:17:57.661Z,102170.73
2018-04-19T20:20:23.697Z,102172.24
2018-04-19T20:22:49.725Z,102172.54
2018-04-19T20:25:15.852Z,102168.95
2018-04-19T20:27:41.948Z,102171.53
2018-04-19T20:30:08.136Z,102163.70
2018-04-19T20:32:34.098Z,102170.70
2018-04-19T20:35:00.174Z,102162.74
2018-04-19T20:37:26.288Z,102163.78
2018-04-19T20:39:52.349Z,102163.56
2018-04-19T20:42:18.378Z,102167.40
2018-04-19T20:44:44.508Z,102160.77
2018-04-19T20:47:10.605Z,102165.11
2018-04-19T20:49:36.661Z,102152.86
2018-04-19T20:52:02.867Z,102158.53
2018-04-19T20:54:28.895Z,102148.81
2018-04-19T20:56:54.946Z,102152.27
2018-04-19T20:59:20.969Z,102141.20
2018-04-19T21:01:46.975Z,102142.89
2018-04-19T21:04:13.030Z,102142.37
2018-04-19T21:06:39.059Z,102144.16
2018-04-19T21:09:05.202Z,102143.23
2018-04-19T21:11:31.232Z,102138.10
2018-04-19T21:13:57.246Z,102141.25
2018-04-19T21:16:23.281Z,102137.50
2018-04-19T21:18:49.305Z,102135.49
2018-04-19T21:21:15.331Z,102128.58
2018-04-19T21:23:41.336Z,102125.55
2018-04-19T21:26:07.385Z,102123.79
2018-04-19T21:28:33.449Z,102124.52
2018-04-19T21:30:59.522Z,102127.05
2018-04-19T21:33:25.593Z,102127.54
2018-04-19T21:35:51.620Z,102122.73
2018-04-19T21:38:17.781Z,102123.34
2018-04-19T21:40:43.912Z,102121.57
2018-04-19T21:43:09.980Z,102119.97
2018-04-19T21:45:36.014Z,102120.19
2018-04-19T21:48:02.156Z,102119.01
2018-04-19T21:50:28.196Z,102119.02
2018-04-19T21:52:54.273Z,102116.06
2018-04-19T21:55:20.300Z,102112.94
2018-04-19T21:57:46.346Z,102114.80
2018-04-19T22:00:12.516Z,102121.08
2018-04-19T22:02:38.580Z,102113.81
2018-04-19T22:05:04.600Z,102123.27
2018-04-19T22:07:30.614Z,102118.55
2018-04-19T22:09:56.644Z,102118.46
2018-04-19T22:12:22.700Z,102126.06
2018-04-19T22:14:48.716Z,102119.47
2018-04-19T22:17:14.784Z,102121.35
2018-04-19T22:19:40.851Z,102113.16
2018-04-19T22:22:06.897Z,102113.07
2018-04-19T22:24:33.004Z,102119.73
2018-04-19T22:26:59.051Z,102119.30
2018-04-19T22:29:25.108Z,102115.80
2018-04-19T22:31:51.140Z,102115.96
2018-04-19T22:34:17.143Z,102118.94
2018-04-19T22:36:43.136Z,102120.03
2018-04-19T22:39:09.213Z,102118.42
2018-04-19T22:41:35.323Z,102120.60
2018-04-19T22:44:01.660Z,102124.64
2018-04-19T22:46:27.680Z,102124.05
2018-04-19T22:48:53.688Z,102128.16
2018-04-19T22:51:20.631Z,102129.08
2018-04-19T22:53:46.685Z,102127.83
2018-04-19T22:56:12.719Z,102131.34
2018-04-19T22:58:38.828Z,102128.80
2018-04-19T23:01:04.836Z,102131.05
2018-04-19T23:03:30.868Z,102122.70
2018-04-19T23:05:56.872Z,102130.27
2018-04-19T23:08:22.927Z,102122.75
2018-04-19T23:10:48.984Z,102125.19
2018-04-19T23:13:14.990Z,102127.78
2018-04-19T23:15:41.058Z,102120.70
2018-04-19T23:18:07.085Z,102119.58
2018-04-19T23:20:33.158Z,102123.70
2018-04-19T23:22:59.222Z,102115.19
2018-04-19T23:25:25.292Z,102124.16
2018-04-19T23:27:51.296Z,102117.58
2018-04-19T23:30:17.401Z,102107.95
2018-04-19T23:32:43.505Z,102112.32
2018-04-19T23:35:09.537Z,102116.27
2018-04-19T23:37:35.567Z,102107.09
2018-04-19T23:40:01.991Z,102113.36
2018-04-19T23:42:28.964Z,102111.22
2018-04-19T23:44:55.010Z,102110.19
2018-04-19T23:47:21.003Z,102116.81
2018-04-19T23:49:47.033Z,102116.79
2018-04-19T23:52:13.135Z,102113.06
2018-04-19T23:54:39.171Z,102113.03
2018-04-19T23:57:05.238Z,102114.30
2018-04-19T23:59:31.270Z,102112.34
